G.bellini — IKGF — position and weather

sailwx.info

Track history (hours):
 
Tides and Currents Weather Stations Pressure Air Temp Water Temp Dewpoint Dewpoint Depression Visibility Wind Speed Wind Dir Waves Ship Positions

G.bellini

Last reported at 2014-Jul-22 16:12 UTC. Time now 2014-Jul-22 17:30 UTC.
Position N 42°49' E 010°27'.

Length 72 m; draft 3.6 m.

Type: Ship. MMSI: 247041900.

Date/timePositionNaut miles runAvg speedWind from/ knotsBaromVisibWave heightAir tempDewpointWater temp
2014-Jul-22 16:12N 42°49' E 010°27'8 9.9
2014-Jul-22 15:24N 42°56' E 010°33'7 8.6
2014-Jul-22 14:33N 42°50' E 010°27'6 5.7
2014-Jul-22 13:33N 42°44' E 010°27'9 1.8
2014-Jul-22 08:19N 42°39' E 010°16'1114.1
2014-Jul-22 07:32N 42°46' E 010°27'3 0.2
2014-Jul-21 15:29N 42°49' E 010°27'4 0.2
2014-Jul-20 17:33N 42°52' E 010°30'4 3.5
2014-Jul-20 16:30N 42°55' E 010°33'7 6.5
2014-Jul-20 15:26N 42°49' E 010°27'8 6.3
2014-Jul-20 14:08N 42°56' E 010°33'3 2.1
2014-Jul-20 12:33N 42°53' E 010°31'3 2.3
2014-Jul-20 11:14N 42°56' E 010°33'5 3.1
2014-Jul-20 09:33N 42°51' E 010°29'6 5.7
2014-Jul-20 08:32N 42°56' E 010°34'1 0.6
2014-Jul-20 06:29N 42°55' E 010°33'1 1.3
2014-Jul-20 05:33N 42°56' E 010°33'5 0.4
2014-Jul-19 17:33N 42°52' E 010°30'1 1.0
2014-Jul-19 16:23N 42°53' E 010°31'5 4.8
2014-Jul-19 15:26N 42°49' E 010°27'4 1.6
2014-Jul-19 12:33N 42°53' E 010°31'3 2.4
2014-Jul-19 11:11N 42°56' E 010°33'5 3.3
2014-Jul-19 09:33N 42°51' E 010°29'6 5.6
2014-Jul-19 08:33N 42°56' E 010°33'2 0.9
2014-Jul-19 06:33N 42°54' E 010°32'2 2.0
2014-Jul-19 05:33N 42°56' E 010°33'5 0.4
2014-Jul-18 17:34N 42°51' E 010°30'2 1.4
2014-Jul-18 16:23N 42°53' E 010°31'5 5.9
2014-Jul-18 15:31N 42°49' E 010°26'8 6.4
2014-Jul-18 14:12N 42°56' E 010°33'3 2.0
2014-Jul-18 12:33N 42°53' E 010°31'3 2.4
2014-Jul-18 11:09N 42°56' E 010°33'6 3.6
2014-Jul-18 09:33N 42°51' E 010°29'6 5.7
2014-Jul-18 08:33N 42°56' E 010°34'2 1.2
2014-Jul-18 06:33N 42°54' E 010°32'2 2.4
2014-Jul-18 05:33N 42°56' E 010°34'8 0.6
2014-Jul-17 16:12N 42°49' E 010°27'2 0.9
2014-Jul-17 13:33N 42°51' E 010°29'1 0.3
2014-Jul-17 11:33N 42°51' E 010°29'0 0.2
2014-Jul-17 09:33N 42°51' E 010°29'6 5.8
2014-Jul-17 08:33N 42°56' E 010°34'2 0.8
2014-Jul-17 06:33N 42°54' E 010°32'1 0.8
2014-Jul-17 05:33N 42°54' E 010°33'7 0.5
2014-Jul-16 16:14N 42°49' E 010°27'2 0.8
2014-Jul-16 13:33N 42°51' E 010°29'0 0.2
2014-Jul-16 11:33N 42°51' E 010°29'0 0.1
2014-Jul-16 09:33N 42°51' E 010°29'6 5.8
2014-Jul-16 08:33N 42°56' E 010°34'1 0.6
2014-Jul-16 06:29N 42°55' E 010°33'2 1.9
2014-Jul-16 05:22N 42°53' E 010°32'6 0.4
2014-Jul-15 16:14N 42°49' E 010°26'8 8.0
2014-Jul-15 15:11N 42°56' E 010°33'711.6
2014-Jul-15 14:34N 42°50' E 010°27'21 7.0
2014-Jul-15 11:31N 42°35' E 010°06'7 2.3
2014-Jul-15 08:33N 42°38' E 010°15'18 5.6
2014-Jul-15 05:18N 42°52' E 010°31'3 0.1
2014-Jul-13 12:28N 42°54' E 010°32'  
Track history (hours):
 
Tides and Currents Weather Stations Pressure Air Temp Water Temp Dewpoint Dewpoint Depression Visibility Wind Speed Wind Dir Waves Ship Positions

G.bellini

Last reported at 2014-Jul-22 16:12 UTC. Time now 2014-Jul-22 17:30 UTC.
Position N 42°49' E 010°27'.

Length 72 m; draft 3.6 m.

Type: Ship. MMSI: 247041900.

Date/timePositionNaut miles runAvg speedWind from/ knotsBaromVisibWave heightAir tempDewpointWater temp
2014-Jul-22 16:12N 42°49' E 010°27'8 9.9
2014-Jul-22 15:24N 42°56' E 010°33'7 8.6
2014-Jul-22 14:33N 42°50' E 010°27'6 5.7
2014-Jul-22 13:33N 42°44' E 010°27'9 1.8
2014-Jul-22 08:19N 42°39' E 010°16'1114.1
2014-Jul-22 07:32N 42°46' E 010°27'3 0.2
2014-Jul-21 15:29N 42°49' E 010°27'4 0.2
2014-Jul-20 17:33N 42°52' E 010°30'4 3.5
2014-Jul-20 16:30N 42°55' E 010°33'7 6.5
2014-Jul-20 15:26N 42°49' E 010°27'8 6.3
2014-Jul-20 14:08N 42°56' E 010°33'3 2.1
2014-Jul-20 12:33N 42°53' E 010°31'3 2.3
2014-Jul-20 11:14N 42°56' E 010°33'5 3.1
2014-Jul-20 09:33N 42°51' E 010°29'6 5.7
2014-Jul-20 08:32N 42°56' E 010°34'1 0.6
2014-Jul-20 06:29N 42°55' E 010°33'1 1.3
2014-Jul-20 05:33N 42°56' E 010°33'5 0.4
2014-Jul-19 17:33N 42°52' E 010°30'1 1.0
2014-Jul-19 16:23N 42°53' E 010°31'5 4.8
2014-Jul-19 15:26N 42°49' E 010°27'4 1.6
2014-Jul-19 12:33N 42°53' E 010°31'3 2.4
2014-Jul-19 11:11N 42°56' E 010°33'5 3.3
2014-Jul-19 09:33N 42°51' E 010°29'6 5.6
2014-Jul-19 08:33N 42°56' E 010°33'2 0.9
2014-Jul-19 06:33N 42°54' E 010°32'2 2.0
2014-Jul-19 05:33N 42°56' E 010°33'5 0.4
2014-Jul-18 17:34N 42°51' E 010°30'2 1.4
2014-Jul-18 16:23N 42°53' E 010°31'5 5.9
2014-Jul-18 15:31N 42°49' E 010°26'8 6.4
2014-Jul-18 14:12N 42°56' E 010°33'3 2.0
2014-Jul-18 12:33N 42°53' E 010°31'3 2.4
2014-Jul-18 11:09N 42°56' E 010°33'6 3.6
2014-Jul-18 09:33N 42°51' E 010°29'6 5.7
2014-Jul-18 08:33N 42°56' E 010°34'2 1.2
2014-Jul-18 06:33N 42°54' E 010°32'2 2.4
2014-Jul-18 05:33N 42°56' E 010°34'8 0.6
2014-Jul-17 16:12N 42°49' E 010°27'2 0.9
2014-Jul-17 13:33N 42°51' E 010°29'1 0.3
2014-Jul-17 11:33N 42°51' E 010°29'0 0.2
2014-Jul-17 09:33N 42°51' E 010°29'6 5.8
2014-Jul-17 08:33N 42°56' E 010°34'2 0.8
2014-Jul-17 06:33N 42°54' E 010°32'1 0.8
2014-Jul-17 05:33N 42°54' E 010°33'7 0.5
2014-Jul-16 16:14N 42°49' E 010°27'2 0.8
2014-Jul-16 13:33N 42°51' E 010°29'0 0.2
2014-Jul-16 11:33N 42°51' E 010°29'0 0.1
2014-Jul-16 09:33N 42°51' E 010°29'6 5.8
2014-Jul-16 08:33N 42°56' E 010°34'1 0.6
2014-Jul-16 06:29N 42°55' E 010°33'2 1.9
2014-Jul-16 05:22N 42°53' E 010°32'6 0.4
2014-Jul-15 16:14N 42°49' E 010°26'8 8.0
2014-Jul-15 15:11N 42°56' E 010°33'711.6
2014-Jul-15 14:34N 42°50' E 010°27'21 7.0
2014-Jul-15 11:31N 42°35' E 010°06'7 2.3
2014-Jul-15 08:33N 42°38' E 010°15'18 5.6
2014-Jul-15 05:18N 42°52' E 010°31'3 0.1
2014-Jul-13 12:28N 42°54' E 010°32'  

Dump ship's entire track history